createdAt,value
2022-12-31T00:00:16.461Z,97.46
2022-12-31T00:02:43.522Z,97.73
2022-12-31T00:05:11.266Z,97.24
2022-12-31T00:10:05.184Z,97.38
2022-12-31T00:12:32.249Z,96.64
2022-12-31T00:14:59.454Z,96.58
2022-12-31T00:17:26.553Z,96.65
2022-12-31T00:19:53.509Z,96.61
2022-12-31T00:22:20.633Z,96.65
2022-12-31T00:24:47.647Z,96.11
2022-12-31T00:27:16.374Z,95.89
2022-12-31T00:29:43.625Z,95.88
2022-12-31T00:32:10.962Z,96.16
2022-12-31T00:34:37.997Z,96.14
2022-12-31T00:37:05.018Z,96.27
2022-12-31T00:39:32.119Z,96.29
2022-12-31T00:41:59.192Z,96.65
2022-12-31T00:44:26.506Z,96.66
2022-12-31T00:46:54.017Z,96.68
2022-12-31T00:49:20.982Z,96.82
2022-12-31T00:51:48.214Z,97.04
2022-12-31T00:54:15.516Z,96.38
2022-12-31T00:56:42.658Z,96.80
2022-12-31T00:59:09.617Z,97.39
2022-12-31T01:01:39.734Z,97.01
2022-12-31T01:04:19.268Z,97.15
2022-12-31T01:06:47.717Z,97.28
2022-12-31T01:09:18.511Z,97.18
2022-12-31T01:11:45.530Z,97.14
2022-12-31T01:14:19.313Z,96.97
2022-12-31T01:16:52.449Z,97.42
2022-12-31T01:19:29.043Z,97.36
2022-12-31T01:21:57.193Z,97.47
2022-12-31T01:24:24.667Z,97.25
2022-12-31T01:26:51.857Z,97.15
2022-12-31T01:29:19.023Z,97.98
2022-12-31T01:31:46.376Z,97.78
2022-12-31T01:34:13.384Z,97.83
2022-12-31T01:36:40.435Z,97.53
2022-12-31T01:39:09.349Z,97.21
2022-12-31T01:41:43.671Z,97.32
2022-12-31T01:44:13.736Z,97.31
2022-12-31T01:46:50.258Z,97.48
2022-12-31T01:49:58.596Z,97.44
2022-12-31T01:52:37.601Z,97.26
2022-12-31T01:55:31.859Z,97.38
2022-12-31T01:58:12.330Z,96.77
2022-12-31T02:00:39.647Z,97.56
2022-12-31T02:03:08.423Z,96.89
2022-12-31T02:05:49.405Z,97.25
2022-12-31T02:08:16.506Z,96.77
2022-12-31T02:10:43.816Z,96.88
2022-12-31T02:13:11.457Z,97.23
2022-12-31T02:15:53.230Z,96.85
2022-12-31T02:18:59.673Z,96.79
2022-12-31T02:21:43.289Z,97.08
2022-12-31T02:24:57.011Z,96.77
2022-12-31T02:27:49.756Z,97.04
2022-12-31T02:30:23.845Z,96.53
2022-12-31T02:33:10.444Z,96.81
2022-12-31T02:35:46.999Z,96.78
2022-12-31T02:38:30.052Z,96.12
2022-12-31T02:40:58.009Z,96.48
2022-12-31T02:43:27.425Z,96.12
2022-12-31T02:46:13.782Z,96.08
2022-12-31T02:48:57.604Z,96.45
2022-12-31T02:52:15.919Z,95.41
2022-12-31T02:54:53.602Z,95.63
2022-12-31T02:57:27.618Z,94.93
2022-12-31T03:00:19.978Z,95.50
2022-12-31T03:02:48.606Z,95.58
2022-12-31T03:05:19.859Z,94.78
2022-12-31T03:07:47.046Z,95.31
2022-12-31T03:10:14.113Z,94.89
2022-12-31T03:12:47.359Z,94.55
2022-12-31T03:15:20.287Z,94.54
2022-12-31T03:18:07.565Z,94.51
2022-12-31T03:20:57.366Z,94.00
2022-12-31T03:23:51.016Z,94.69
2022-12-31T03:26:19.041Z,93.96
2022-12-31T03:28:48.008Z,94.16
2022-12-31T03:31:16.521Z,94.44
2022-12-31T03:33:43.687Z,93.59
2022-12-31T03:36:14.902Z,93.88
2022-12-31T03:38:42.519Z,93.66
2022-12-31T03:41:11.219Z,93.96
2022-12-31T03:43:38.506Z,93.15
2022-12-31T03:46:05.771Z,93.17
2022-12-31T03:48:32.792Z,93.26
2022-12-31T03:50:59.710Z,92.81
2022-12-31T03:53:27.439Z,93.51
2022-12-31T03:55:54.970Z,93.41
2022-12-31T03:58:22.418Z,93.18
2022-12-31T04:00:49.959Z,93.59
2022-12-31T04:03:17.147Z,93.67
2022-12-31T04:05:44.098Z,93.40
2022-12-31T04:08:11.316Z,93.58
2022-12-31T04:10:38.325Z,93.78
2022-12-31T04:13:05.290Z,93.13
2022-12-31T04:15:32.393Z,93.27
2022-12-31T04:17:59.381Z,93.48
2022-12-31T04:20:26.347Z,93.24
2022-12-31T04:22:53.558Z,93.02
2022-12-31T04:25:20.484Z,93.16
2022-12-31T04:27:47.860Z,93.23
2022-12-31T04:30:14.911Z,93.47
2022-12-31T04:32:42.426Z,93.21
2022-12-31T04:35:10.851Z,92.76
2022-12-31T04:37:38.056Z,93.31
2022-12-31T04:40:07.209Z,93.03
2022-12-31T04:42:35.886Z,93.03
2022-12-31T04:45:03.525Z,93.24
2022-12-31T04:47:30.488Z,93.09
2022-12-31T04:49:57.407Z,93.15
2022-12-31T04:52:25.422Z,92.82
2022-12-31T04:54:52.391Z,92.53
2022-12-31T04:57:19.363Z,92.99
2022-12-31T04:59:46.301Z,92.87
2022-12-31T05:02:13.386Z,93.04
2022-12-31T05:04:40.471Z,92.87
2022-12-31T05:07:07.431Z,92.42
2022-12-31T05:09:34.624Z,92.47
2022-12-31T05:12:01.608Z,92.24
2022-12-31T05:14:28.637Z,92.28
2022-12-31T05:16:55.820Z,92.55
2022-12-31T05:19:22.759Z,93.36
2022-12-31T05:22:09.630Z,93.05
2022-12-31T05:24:36.605Z,93.11
2022-12-31T05:27:03.883Z,93.26
2022-12-31T05:29:30.956Z,92.68
2022-12-31T05:31:57.993Z,92.16
2022-12-31T05:34:24.909Z,93.36
2022-12-31T05:36:51.858Z,93.13
2022-12-31T05:39:18.736Z,93.18
2022-12-31T05:41:45.621Z,93.18
2022-12-31T05:44:12.615Z,92.91
2022-12-31T05:46:39.651Z,93.13
2022-12-31T05:49:06.560Z,93.12
2022-12-31T05:51:34.200Z,93.14
2022-12-31T05:54:01.077Z,93.42
2022-12-31T05:56:28.007Z,93.13
2022-12-31T05:58:54.902Z,92.83
2022-12-31T06:01:22.214Z,93.21
2022-12-31T06:03:49.335Z,93.11
2022-12-31T06:06:16.299Z,93.24
2022-12-31T06:08:43.232Z,93.39
2022-12-31T06:11:10.207Z,93.32
2022-12-31T06:13:37.156Z,92.96
2022-12-31T06:16:08.784Z,93.16
2022-12-31T06:18:35.895Z,93.23
2022-12-31T06:21:04.176Z,92.60
2022-12-31T06:23:31.302Z,93.24
2022-12-31T06:26:05.617Z,93.31
2022-12-31T06:28:33.065Z,93.19
2022-12-31T06:31:02.124Z,93.55
2022-12-31T06:33:29.372Z,92.93
2022-12-31T06:35:58.216Z,93.25
2022-12-31T06:38:26.992Z,92.94
2022-12-31T06:40:54.062Z,93.23
2022-12-31T06:43:21.292Z,92.98
2022-12-31T06:45:48.778Z,93.49
2022-12-31T06:48:16.679Z,93.25
2022-12-31T06:50:43.648Z,93.09
2022-12-31T06:53:11.984Z,93.10
2022-12-31T06:55:39.571Z,93.15
2022-12-31T06:58:06.953Z,93.00
2022-12-31T07:00:34.234Z,92.87
2022-12-31T07:03:22.835Z,92.54
2022-12-31T07:06:10.260Z,92.53
2022-12-31T07:08:51.751Z,92.40
2022-12-31T07:11:36.059Z,92.39
2022-12-31T07:14:22.437Z,92.39
2022-12-31T07:17:04.439Z,91.98
2022-12-31T07:19:57.680Z,92.51
2022-12-31T07:22:25.661Z,91.87
2022-12-31T07:24:53.221Z,92.15
2022-12-31T07:27:50.427Z,92.27
2022-12-31T07:30:58.005Z,92.18
2022-12-31T07:33:48.845Z,91.70
2022-12-31T07:36:31.150Z,91.71
2022-12-31T07:39:37.910Z,91.72
2022-12-31T07:42:19.717Z,91.48
2022-12-31T07:45:01.413Z,91.44
2022-12-31T07:47:29.751Z,91.97
2022-12-31T07:49:57.971Z,91.66
2022-12-31T07:52:25.981Z,91.67
2022-12-31T07:54:53.000Z,91.24
2022-12-31T07:57:21.378Z,91.03
2022-12-31T08:00:26.959Z,91.06
2022-12-31T08:03:16.745Z,91.79
2022-12-31T08:05:51.188Z,91.86
2022-12-31T08:09:02.521Z,91.92
2022-12-31T08:11:41.299Z,91.91
2022-12-31T08:14:11.946Z,91.36
2022-12-31T08:16:39.910Z,91.54
2022-12-31T08:19:07.648Z,91.63
2022-12-31T08:22:04.485Z,91.62
2022-12-31T08:24:52.645Z,91.99
2022-12-31T08:27:37.507Z,91.29
2022-12-31T08:30:11.348Z,92.09
2022-12-31T08:32:50.200Z,92.29
2022-12-31T08:35:45.641Z,92.06
2022-12-31T08:38:40.483Z,91.92
2022-12-31T08:41:16.039Z,92.48
2022-12-31T08:44:13.581Z,92.29
2022-12-31T08:47:23.041Z,92.56
2022-12-31T08:49:50.575Z,92.47
2022-12-31T08:52:25.090Z,92.44
2022-12-31T08:54:53.190Z,92.64
2022-12-31T08:57:37.051Z,92.44
2022-12-31T09:00:10.795Z,92.47
2022-12-31T09:03:05.119Z,92.40
2022-12-31T09:05:47.620Z,92.55
2022-12-31T09:08:30.688Z,92.46
2022-12-31T09:11:08.541Z,92.89
2022-12-31T09:13:59.875Z,91.86
2022-12-31T09:17:05.605Z,92.28
2022-12-31T09:19:32.787Z,92.23
2022-12-31T09:22:00.076Z,92.81
2022-12-31T09:24:27.955Z,92.44
2022-12-31T09:27:23.886Z,92.63
2022-12-31T09:30:08.126Z,92.08
2022-12-31T09:33:03.524Z,92.38
2022-12-31T09:35:41.982Z,91.87
2022-12-31T09:38:42.381Z,91.84
2022-12-31T09:41:35.789Z,92.08
2022-12-31T09:44:21.873Z,92.33
2022-12-31T10:23:53.670Z,91.84
2022-12-31T10:27:03.311Z,91.44
2022-12-31T10:30:22.983Z,91.55
2022-12-31T10:33:37.450Z,92.20
2022-12-31T10:36:52.630Z,91.98
2022-12-31T10:40:24.437Z,92.82
2022-12-31T10:43:21.511Z,92.55
2022-12-31T10:46:16.346Z,92.04
2022-12-31T10:49:34.170Z,92.22
2022-12-31T10:52:25.224Z,92.12
2022-12-31T10:55:49.378Z,92.58
2022-12-31T10:58:31.579Z,92.32
2022-12-31T11:01:20.509Z,92.24
2022-12-31T11:04:23.166Z,92.17
2022-12-31T11:07:42.469Z,92.04
2022-12-31T11:10:46.719Z,92.08
2022-12-31T11:13:53.093Z,92.01
2022-12-31T11:16:57.177Z,91.52
2022-12-31T11:19:52.232Z,91.66
2022-12-31T11:22:34.918Z,91.69
2022-12-31T11:25:27.699Z,91.58
2022-12-31T11:28:03.868Z,91.43
2022-12-31T11:30:52.468Z,91.49
2022-12-31T11:34:16.879Z,91.21
2022-12-31T11:37:41.613Z,92.07
2022-12-31T11:40:37.761Z,91.86
2022-12-31T11:43:24.926Z,91.65
2022-12-31T11:46:21.756Z,91.06
2022-12-31T11:49:16.675Z,91.54
2022-12-31T11:52:21.665Z,90.65
2022-12-31T11:55:16.730Z,90.39
2022-12-31T11:57:50.659Z,90.58
2022-12-31T12:00:25.792Z,90.45
2022-12-31T12:03:02.573Z,90.91
2022-12-31T12:05:30.341Z,90.43
2022-12-31T12:07:57.822Z,90.86
2022-12-31T12:10:38.637Z,90.72
2022-12-31T12:13:17.704Z,90.22
2022-12-31T12:15:59.279Z,89.70
2022-12-31T12:18:42.295Z,90.26
2022-12-31T12:21:17.257Z,90.27
2022-12-31T12:24:05.314Z,89.95
2022-12-31T12:26:35.663Z,89.86
2022-12-31T12:29:14.759Z,90.00
2022-12-31T12:31:42.777Z,90.08
2022-12-31T12:34:43.121Z,89.17
2022-12-31T12:37:25.124Z,89.43
2022-12-31T12:40:10.056Z,88.77
2022-12-31T12:42:48.096Z,88.53
2022-12-31T12:45:26.873Z,88.17
2022-12-31T12:47:59.101Z,87.90
2022-12-31T12:50:44.187Z,88.32
2022-12-31T12:53:35.444Z,88.18
2022-12-31T12:56:41.292Z,87.49
2022-12-31T12:59:54.471Z,87.21
2022-12-31T13:02:52.450Z,87.75
2022-12-31T13:05:34.681Z,87.62
2022-12-31T13:08:19.834Z,87.30
2022-12-31T13:11:01.393Z,87.05
2022-12-31T13:14:13.245Z,86.59
2022-12-31T13:16:55.466Z,86.41
2022-12-31T13:19:43.052Z,87.28
2022-12-31T13:22:26.627Z,87.19
2022-12-31T13:25:30.822Z,86.62
2022-12-31T13:28:04.607Z,86.65
2022-12-31T13:31:06.515Z,86.61
2022-12-31T13:33:41.614Z,86.82
2022-12-31T13:36:15.601Z,86.83
2022-12-31T13:38:53.460Z,86.79
2022-12-31T13:41:35.274Z,87.06
2022-12-31T13:44:08.873Z,87.49
2022-12-31T13:46:48.459Z,86.97
2022-12-31T13:49:19.529Z,87.69
2022-12-31T13:51:52.186Z,88.08
2022-12-31T13:54:41.212Z,87.70
2022-12-31T13:57:40.662Z,86.62
2022-12-31T14:00:24.302Z,86.83
2022-12-31T14:02:59.226Z,87.65
2022-12-31T14:05:33.419Z,87.25
2022-12-31T14:08:04.236Z,87.11
2022-12-31T14:10:54.742Z,86.81
2022-12-31T14:13:43.965Z,86.42
2022-12-31T14:16:41.446Z,87.04
2022-12-31T14:19:41.362Z,87.14
2022-12-31T14:22:19.403Z,86.70
2022-12-31T14:24:51.093Z,87.11
2022-12-31T14:27:34.924Z,87.12
2022-12-31T14:30:20.738Z,86.99
2022-12-31T14:33:12.114Z,87.32
2022-12-31T14:36:18.089Z,87.58
2022-12-31T14:39:25.516Z,88.21
2022-12-31T14:42:20.535Z,88.18
2022-12-31T14:45:26.875Z,87.63
2022-12-31T14:48:24.498Z,87.59
2022-12-31T14:50:53.118Z,88.44
2022-12-31T14:53:26.870Z,87.71
2022-12-31T14:56:42.885Z,87.87
2022-12-31T14:59:33.373Z,87.93
2022-12-31T15:02:24.221Z,88.30
2022-12-31T15:04:51.352Z,88.81
2022-12-31T15:07:31.378Z,88.30
2022-12-31T15:10:13.372Z,88.30
2022-12-31T15:12:50.091Z,88.68
2022-12-31T15:15:59.631Z,88.19
2022-12-31T15:18:46.922Z,88.79
2022-12-31T15:21:55.046Z,88.44
2022-12-31T15:24:25.558Z,88.87
2022-12-31T15:26:56.971Z,88.44
2022-12-31T15:29:51.761Z,88.16
2022-12-31T15:32:42.125Z,88.64
2022-12-31T15:35:21.294Z,89.08
2022-12-31T15:38:39.725Z,88.98
2022-12-31T15:42:18.837Z,88.89
2022-12-31T15:44:52.863Z,88.91
2022-12-31T15:47:37.386Z,89.03
2022-12-31T15:50:12.657Z,88.64
2022-12-31T15:52:48.022Z,88.73
2022-12-31T15:55:45.614Z,88.42
2022-12-31T15:58:18.255Z,88.55
2022-12-31T16:01:14.084Z,88.65
2022-12-31T16:03:57.998Z,88.06
2022-12-31T16:06:29.519Z,88.83
2022-12-31T16:08:57.305Z,88.70
2022-12-31T16:11:25.528Z,88.38
2022-12-31T16:13:54.975Z,88.00
2022-12-31T16:16:29.286Z,87.98
2022-12-31T16:18:57.126Z,87.87
2022-12-31T16:21:37.831Z,88.07
2022-12-31T16:24:28.078Z,88.44
2022-12-31T16:27:00.330Z,88.82
2022-12-31T16:29:28.477Z,88.74
2022-12-31T16:31:55.524Z,88.33
2022-12-31T16:34:28.090Z,88.28
2022-12-31T16:37:02.645Z,88.10
2022-12-31T16:39:57.622Z,88.73
2022-12-31T16:42:28.140Z,88.46
2022-12-31T16:44:57.705Z,88.63
2022-12-31T16:47:40.373Z,88.68
2022-12-31T16:50:17.077Z,88.57
2022-12-31T16:52:47.551Z,89.15
2022-12-31T16:55:28.118Z,88.62
2022-12-31T16:58:11.608Z,89.12
2022-12-31T17:00:39.481Z,89.30
2022-12-31T17:03:25.053Z,88.79
2022-12-31T17:05:59.826Z,88.35
2022-12-31T17:09:04.595Z,88.29
2022-12-31T17:11:33.683Z,88.04
2022-12-31T17:14:15.046Z,88.44
2022-12-31T17:17:03.146Z,88.42
2022-12-31T17:19:39.290Z,88.51
2022-12-31T17:22:15.939Z,88.38
2022-12-31T17:24:43.084Z,87.92
2022-12-31T17:27:10.681Z,88.23
2022-12-31T17:29:39.115Z,87.84
2022-12-31T17:32:38.886Z,87.51
2022-12-31T17:35:37.231Z,88.13
2022-12-31T17:38:31.867Z,87.46
2022-12-31T17:41:07.760Z,87.68
2022-12-31T17:43:39.177Z,87.42
2022-12-31T17:46:25.971Z,87.54
2022-12-31T17:49:02.448Z,88.00
2022-12-31T17:51:29.446Z,87.56
2022-12-31T17:53:56.617Z,86.78
2022-12-31T17:56:23.624Z,87.45
2022-12-31T17:58:53.627Z,87.56
2022-12-31T18:01:23.083Z,87.58
2022-12-31T18:03:50.268Z,87.15
2022-12-31T18:06:19.636Z,87.75
2022-12-31T18:08:47.078Z,87.58
2022-12-31T18:11:21.748Z,88.13
2022-12-31T18:13:49.201Z,87.62
2022-12-31T18:16:16.659Z,87.31
2022-12-31T18:18:45.387Z,87.89
2022-12-31T18:21:34.176Z,88.25
2022-12-31T18:26:30.393Z,88.39
2022-12-31T18:29:13.537Z,88.19
2022-12-31T18:31:45.064Z,88.56
2022-12-31T18:34:17.185Z,87.87
2022-12-31T18:36:44.681Z,88.18
2022-12-31T18:39:12.133Z,88.26
2022-12-31T18:41:45.874Z,88.57
2022-12-31T18:44:14.893Z,88.31
2022-12-31T18:46:42.900Z,88.37
2022-12-31T18:49:10.042Z,88.50
2022-12-31T18:51:37.259Z,88.26
2022-12-31T18:54:05.101Z,88.46
2022-12-31T18:56:32.251Z,88.28
2022-12-31T18:58:59.819Z,88.41
2022-12-31T19:01:45.198Z,89.07
2022-12-31T19:04:27.011Z,89.06
2022-12-31T19:06:56.085Z,88.86
2022-12-31T19:09:44.598Z,89.33
2022-12-31T19:12:14.509Z,89.23
2022-12-31T19:14:41.456Z,89.45
2022-12-31T19:19:35.122Z,89.04
2022-12-31T19:22:02.860Z,89.11
2022-12-31T19:24:30.155Z,89.01
2022-12-31T19:26:57.074Z,89.49
2022-12-31T19:29:28.459Z,89.38
2022-12-31T19:31:55.517Z,89.72
2022-12-31T19:34:22.546Z,89.79
2022-12-31T19:36:49.634Z,89.83
2022-12-31T19:39:20.245Z,89.67
2022-12-31T19:41:56.572Z,89.91
2022-12-31T19:44:26.038Z,89.70
2022-12-31T19:46:53.156Z,89.81
2022-12-31T19:49:20.148Z,90.12
2022-12-31T19:51:47.157Z,90.47
2022-12-31T19:54:14.161Z,90.20
2022-12-31T19:56:41.228Z,89.97
2022-12-31T19:59:10.707Z,90.79
2022-12-31T20:01:38.840Z,90.28
2022-12-31T20:04:06.073Z,90.47
2022-12-31T20:06:33.324Z,91.02
2022-12-31T20:09:00.349Z,90.36
2022-12-31T20:11:27.718Z,91.00
2022-12-31T20:13:54.787Z,90.97
2022-12-31T20:16:26.860Z,91.21
2022-12-31T20:18:54.397Z,91.46
2022-12-31T20:21:25.883Z,91.32
2022-12-31T20:23:54.648Z,90.88
2022-12-31T20:26:24.925Z,91.56
2022-12-31T20:28:53.380Z,91.84
2022-12-31T20:31:25.106Z,91.95
2022-12-31T20:33:54.348Z,91.88
2022-12-31T20:36:22.864Z,92.31
2022-12-31T20:38:50.349Z,91.86
2022-12-31T20:41:21.371Z,91.58
2022-12-31T20:43:49.477Z,91.93
2022-12-31T20:46:23.199Z,91.49
2022-12-31T20:48:52.385Z,92.14
2022-12-31T20:51:21.085Z,92.25
2022-12-31T20:53:51.336Z,92.49
2022-12-31T20:56:18.968Z,92.51
2022-12-31T20:58:46.891Z,92.53
2022-12-31T21:01:15.837Z,92.53
2022-12-31T21:06:34.315Z,92.45
2022-12-31T21:09:04.299Z,92.33
2022-12-31T21:11:50.225Z,92.28
2022-12-31T21:14:17.414Z,92.55
2022-12-31T21:16:44.399Z,92.63
2022-12-31T21:19:11.419Z,92.97
2022-12-31T21:21:38.325Z,93.07
2022-12-31T21:24:05.886Z,92.47
2022-12-31T21:26:32.835Z,93.29
2022-12-31T21:28:59.933Z,93.22
2022-12-31T21:31:28.073Z,92.71
2022-12-31T21:33:56.082Z,93.13
2022-12-31T21:36:23.341Z,93.09
2022-12-31T21:38:50.308Z,93.10
2022-12-31T21:41:35.707Z,93.17
2022-12-31T21:44:03.555Z,93.30
2022-12-31T21:46:31.482Z,93.72
2022-12-31T21:49:00.164Z,93.73
2022-12-31T21:51:28.740Z,93.87
2022-12-31T21:53:56.228Z,94.01
2022-12-31T21:56:23.891Z,93.70
2022-12-31T21:59:16.014Z,94.08
2022-12-31T22:02:02.652Z,94.08
2022-12-31T22:07:17.115Z,94.69
2022-12-31T22:09:45.297Z,94.10
2022-12-31T22:12:12.351Z,94.28
2022-12-31T22:14:39.473Z,94.04
2022-12-31T22:17:26.423Z,94.46
2022-12-31T22:20:25.220Z,94.29
2022-12-31T22:22:41.357Z,94.91
2022-12-31T22:25:09.591Z,95.10
2022-12-31T22:27:36.579Z,94.74
2022-12-31T22:30:04.721Z,95.18
2022-12-31T22:32:31.645Z,95.08
2022-12-31T22:34:58.839Z,95.16
2022-12-31T22:37:55.526Z,94.76
2022-12-31T22:40:13.248Z,94.69
2022-12-31T22:42:41.030Z,95.41
2022-12-31T22:45:09.359Z,94.90
2022-12-31T22:47:36.376Z,95.38
2022-12-31T22:50:04.554Z,95.60
2022-12-31T22:52:31.759Z,94.88
2022-12-31T22:54:58.990Z,95.54
2022-12-31T22:57:25.905Z,95.42
2022-12-31T22:59:52.955Z,95.19
2022-12-31T23:02:19.986Z,94.95
2022-12-31T23:04:47.012Z,95.73
2022-12-31T23:07:14.000Z,95.13
2022-12-31T23:10:00.216Z,95.39
2022-12-31T23:12:27.496Z,95.56
2022-12-31T23:15:13.135Z,95.39
2022-12-31T23:17:58.727Z,95.40
2022-12-31T23:20:44.726Z,95.48
2022-12-31T23:23:17.446Z,95.88
2022-12-31T23:25:49.865Z,95.34
2022-12-31T23:28:24.351Z,95.94
2022-12-31T23:30:52.120Z,95.13
2022-12-31T23:33:25.454Z,95.42
2022-12-31T23:36:07.289Z,95.64
2022-12-31T23:38:34.481Z,95.99
2022-12-31T23:41:01.470Z,95.32
2022-12-31T23:43:28.779Z,95.56
2022-12-31T23:45:55.859Z,95.95
2022-12-31T23:48:22.877Z,95.58
2022-12-31T23:50:53.808Z,96.06
2022-12-31T23:53:25.444Z,95.56
2022-12-31T23:55:53.473Z,95.82
2022-12-31T23:58:21.345Z,95.68
